PWSweather.com
Personal Weather Stations
Station Observations
DW6359
Southwest Cambria, Cambria, WI 53923

Southwest CambriaCambria, WI 53923

Lat: 43.541194, Lon: -89.11275

Elevation: 945

Station Type: Davis Vantage Pro2

http://home.centurytel.net/weathercambria/wxcambria.html

High Low Average
Temperature 38.3°F3.5°C 24.0°F-4.4°C 32.1°F0.1°C
Dew Point 29.8°F-1.2°C 18.9°F-7.3°C 25.2°F-3.8°C
Winds 11.0 mph 17.7 kmh Calm Calm 4.0 mph SSW6.4 kmh SSW
Wind Gusts 13.0 mph20.9 kmh -- 1.0 mph1.6 kmh
Humidity 83% 68% 76%
Pressure 29.95 in1014.2 mb 29.67 in1004.7 mb -
Precipitation 0.02 in0.5 mm - -
Hour Temp Dew Point Humidity Winds Wind Gusts Pressure Precip Precip Rate Daily Precip Total
12:00 AM 26.0°F-3.3°C 20.1°F-6.6°C 78% 3.0 mph SW4.8 kmh SW -- 29.96 in1014.6 mb 0.00 in0.0 mm 0.00 in0.0 mm 0.00 in0.0 mm
12:05 AM 26.0°F-3.3°C 20.1°F-6.6°C 78% 2.0 mph SW3.2 kmh SW -- 29.96 in1014.6 mb 0.00 in0.0 mm 0.00 in0.0 mm 0.00 in0.0 mm
12:10 AM 26.0°F-3.3°C 20.1°F-6.6°C 78% 2.0 mph SW3.2 kmh SW 6.0 mph9.7 kmh 29.95 in1014.2 mb 0.00 in0.0 mm 0.00 in0.0 mm 0.00 in0.0 mm
12:15 AM 25.8°F-3.4°C 19.9°F-6.7°C 78% 4.0 mph SW6.4 kmh SW 6.0 mph9.7 kmh 29.95 in1014.2 mb 0.00 in0.0 mm 0.00 in0.0 mm 0.00 in0.0 mm
12:20 AM 25.8°F-3.4°C 19.9°F-6.7°C 78% 3.0 mph SW4.8 kmh SW -- 29.95 in1014.2 mb 0.00 in0.0 mm 0.00 in0.0 mm 0.00 in0.0 mm
12:25 AM 25.8°F-3.4°C 19.9°F-6.7°C 78% 2.0 mph SW3.2 kmh SW -- 29.95 in1014.2 mb 0.00 in0.0 mm 0.00 in0.0 mm 0.00 in0.0 mm
12:30 AM 25.8°F-3.4°C 19.9°F-6.7°C 78% 3.0 mph SW4.8 kmh SW -- 29.95 in1014.2 mb 0.00 in0.0 mm 0.00 in0.0 mm 0.00 in0.0 mm
12:35 AM 25.8°F-3.4°C 19.9°F-6.7°C 78% 2.0 mph SW3.2 kmh SW -- 29.95 in1014.2 mb 0.00 in0.0 mm 0.00 in0.0 mm 0.00 in0.0 mm
12:40 AM 25.8°F-3.4°C 19.9°F-6.7°C 78% 2.0 mph SW3.2 kmh SW -- 29.95 in1014.2 mb 0.00 in0.0 mm 0.00 in0.0 mm 0.00 in0.0 mm
12:45 AM 25.8°F-3.4°C 20.2°F-6.6°C 79% 3.0 mph SW4.8 kmh SW -- 29.95 in1014.2 mb 0.00 in0.0 mm 0.00 in0.0 mm 0.00 in0.0 mm
12:50 AM 25.8°F-3.4°C 20.2°F-6.6°C 79% 3.0 mph SW4.8 kmh SW -- 29.94 in1013.9 mb 0.00 in0.0 mm 0.00 in0.0 mm 0.00 in0.0 mm
12:55 AM 25.8°F-3.4°C 20.2°F-6.6°C 79% 3.0 mph SW4.8 kmh SW -- 29.94 in1013.9 mb 0.00 in0.0 mm 0.00 in0.0 mm 0.00 in0.0 mm
01:00 AM 25.8°F-3.4°C 20.2°F-6.6°C 79% 1.0 mph SW1.6 kmh SW 4.0 mph6.4 kmh 29.95 in1014.2 mb 0.00 in0.0 mm 0.00 in0.0 mm 0.00 in0.0 mm
01:05 AM 25.7°F-3.5°C 20.1°F-6.6°C 79% 2.0 mph SW3.2 kmh SW 4.0 mph6.4 kmh 29.95 in1014.2 mb 0.00 in0.0 mm 0.00 in0.0 mm 0.00 in0.0 mm
01:10 AM 25.7°F-3.5°C 20.1°F-6.6°C 79% 1.0 mph SW1.6 kmh SW -- 29.94 in1013.9 mb 0.00 in0.0 mm 0.00 in0.0 mm 0.00 in0.0 mm
01:15 AM 25.6°F-3.6°C 20.0°F-6.7°C 79% Calm Calm -- 29.95 in1014.2 mb 0.00 in0.0 mm 0.00 in0.0 mm 0.00 in0.0 mm
01:20 AM 25.4°F-3.7°C 19.8°F-6.8°C 79% Calm Calm -- 29.95 in1014.2 mb 0.00 in0.0 mm 0.00 in0.0 mm 0.00 in0.0 mm
01:25 AM 25.3°F-3.7°C 19.7°F-6.8°C 79% Calm Calm -- 29.95 in1014.2 mb 0.00 in0.0 mm 0.00 in0.0 mm 0.00 in0.0 mm
01:30 AM 25.1°F-3.8°C 19.5°F-6.9°C 79% Calm Calm -- 29.95 in1014.2 mb 0.00 in0.0 mm 0.00 in0.0 mm 0.00 in0.0 mm
01:35 AM 25.0°F-3.9°C 19.4°F-7.0°C 79% Calm Calm -- 29.95 in1014.2 mb 0.00 in0.0 mm 0.00 in0.0 mm 0.00 in0.0 mm
01:40 AM 24.9°F-3.9°C 19.3°F-7.1°C 79% Calm Calm -- 29.94 in1013.9 mb 0.00 in0.0 mm 0.00 in0.0 mm 0.00 in0.0 mm
01:45 AM 24.8°F-4.0°C 19.2°F-7.1°C 79% Calm Calm -- 29.94 in1013.9 mb 0.00 in0.0 mm 0.00 in0.0 mm 0.00 in0.0 mm
01:50 AM 24.5°F-4.2°C 18.9°F-7.3°C 79% Calm Calm -- 29.94 in1013.9 mb 0.00 in0.0 mm 0.00 in0.0 mm 0.00 in0.0 mm
01:55 AM 24.5°F-4.2°C 19.2°F-7.1°C 80% Calm Calm -- 29.94 in1013.9 mb 0.00 in0.0 mm 0.00 in0.0 mm 0.00 in0.0 mm
02:00 AM 24.6°F-4.1°C 19.3°F-7.1°C 80% Calm Calm -- 29.95 in1014.2 mb 0.00 in0.0 mm 0.00 in0.0 mm 0.00 in0.0 mm
02:05 AM 24.7°F-4.1°C 19.4°F-7.0°C 80% Calm Calm -- 29.94 in1013.9 mb 0.00 in0.0 mm 0.00 in0.0 mm 0.00 in0.0 mm
02:10 AM 24.8°F-4.0°C 19.5°F-6.9°C 80% Calm Calm -- 29.94 in1013.9 mb 0.00 in0.0 mm 0.00 in0.0 mm 0.00 in0.0 mm
02:15 AM 24.8°F-4.0°C 19.5°F-6.9°C 80% Calm Calm -- 29.94 in1013.9 mb 0.00 in0.0 mm 0.00 in0.0 mm 0.00 in0.0 mm
02:20 AM 24.9°F-3.9°C 19.6°F-6.9°C 80% Calm Calm -- 29.94 in1013.9 mb 0.00 in0.0 mm 0.00 in0.0 mm 0.00 in0.0 mm
02:25 AM 25.1°F-3.8°C 19.8°F-6.8°C 80% Calm Calm -- 29.93 in1013.5 mb 0.00 in0.0 mm 0.00 in0.0 mm 0.00 in0.0 mm
02:30 AM 25.3°F-3.7°C 20.0°F-6.7°C 80% Calm Calm -- 29.93 in1013.5 mb 0.00 in0.0 mm 0.00 in0.0 mm 0.00 in0.0 mm
02:35 AM 25.5°F-3.6°C 20.2°F-6.6°C 80% Calm Calm -- 29.93 in1013.5 mb 0.00 in0.0 mm 0.00 in0.0 mm 0.00 in0.0 mm
02:40 AM 25.6°F-3.6°C 20.3°F-6.5°C 80% Calm Calm -- 29.93 in1013.5 mb 0.00 in0.0 mm 0.00 in0.0 mm 0.00 in0.0 mm
02:45 AM 25.7°F-3.5°C 20.1°F-6.6°C 79% Calm Calm -- 29.93 in1013.5 mb 0.00 in0.0 mm 0.00 in0.0 mm 0.00 in0.0 mm
02:50 AM 25.7°F-3.5°C 20.1°F-6.6°C 79% Calm Calm -- 29.93 in1013.5 mb 0.00 in0.0 mm 0.00 in0.0 mm 0.00 in0.0 mm
02:55 AM 25.8°F-3.4°C 20.2°F-6.6°C 79% Calm Calm -- 29.93 in1013.5 mb 0.00 in0.0 mm 0.00 in0.0 mm 0.00 in0.0 mm
03:00 AM 25.8°F-3.4°C 20.2°F-6.6°C 79% Calm Calm -- 29.93 in1013.5 mb 0.00 in0.0 mm 0.00 in0.0 mm 0.00 in0.0 mm
03:05 AM 26.0°F-3.3°C 20.4°F-6.4°C 79% 3.0 mph SW4.8 kmh SW -- 29.93 in1013.5 mb 0.00 in0.0 mm 0.00 in0.0 mm 0.00 in0.0 mm
03:10 AM 25.9°F-3.4°C 20.3°F-6.5°C 79% 4.0 mph SW6.4 kmh SW -- 29.93 in1013.5 mb 0.00 in0.0 mm 0.00 in0.0 mm 0.00 in0.0 mm
03:15 AM 25.8°F-3.4°C 20.2°F-6.6°C 79% 2.0 mph SW3.2 kmh SW -- 29.93 in1013.5 mb 0.00 in0.0 mm 0.00 in0.0 mm 0.00 in0.0 mm
03:20 AM 25.8°F-3.4°C 20.2°F-6.6°C 79% 1.0 mph SW1.6 kmh SW -- 29.93 in1013.5 mb 0.00 in0.0 mm 0.00 in0.0 mm 0.00 in0.0 mm
03:25 AM 26.0°F-3.3°C 20.7°F-6.3°C 80% 2.0 mph SW3.2 kmh SW -- 29.93 in1013.5 mb 0.00 in0.0 mm 0.00 in0.0 mm 0.00 in0.0 mm
03:30 AM 26.0°F-3.3°C 20.4°F-6.4°C 79% 4.0 mph SW6.4 kmh SW 5.0 mph8.0 kmh 29.93 in1013.5 mb 0.00 in0.0 mm 0.00 in0.0 mm 0.00 in0.0 mm
03:35 AM 26.1°F-3.3°C 20.5°F-6.4°C 79% 3.0 mph SW4.8 kmh SW 5.0 mph8.0 kmh 29.93 in1013.5 mb 0.00 in0.0 mm 0.00 in0.0 mm 0.00 in0.0 mm
03:40 AM 26.1°F-3.3°C 20.5°F-6.4°C 79% 2.0 mph SW3.2 kmh SW -- 29.93 in1013.5 mb 0.00 in0.0 mm 0.00 in0.0 mm 0.00 in0.0 mm
03:45 AM 26.0°F-3.3°C 20.4°F-6.4°C 79% 4.0 mph SW6.4 kmh SW -- 29.93 in1013.5 mb 0.00 in0.0 mm 0.00 in0.0 mm 0.00 in0.0 mm
03:50 AM 25.8°F-3.4°C 20.2°F-6.6°C 79% 3.0 mph SW4.8 kmh SW -- 29.93 in1013.5 mb 0.00 in0.0 mm 0.00 in0.0 mm 0.00 in0.0 mm
03:55 AM 25.6°F-3.6°C 20.0°F-6.7°C 79% 2.0 mph SW3.2 kmh SW -- 29.93 in1013.5 mb 0.00 in0.0 mm 0.00 in0.0 mm 0.00 in0.0 mm
04:00 AM 25.5°F-3.6°C 20.2°F-6.6°C 80% 1.0 mph SW1.6 kmh SW -- 29.92 in1013.2 mb 0.00 in0.0 mm 0.00 in0.0 mm 0.00 in0.0 mm
04:05 AM 25.5°F-3.6°C 20.2°F-6.6°C 80% 2.0 mph SW3.2 kmh SW -- 29.92 in1013.2 mb 0.00 in0.0 mm 0.00 in0.0 mm 0.00 in0.0 mm
04:10 AM 25.6°F-3.6°C 20.3°F-6.5°C 80% 2.0 mph SW3.2 kmh SW -- 29.92 in1013.2 mb 0.00 in0.0 mm 0.00 in0.0 mm 0.00 in0.0 mm
04:15 AM 25.7°F-3.5°C 20.4°F-6.4°C 80% 2.0 mph SW3.2 kmh SW -- 29.92 in1013.2 mb 0.00 in0.0 mm 0.00 in0.0 mm 0.00 in0.0 mm
04:20 AM 25.7°F-3.5°C 20.4°F-6.4°C 80% 4.0 mph SW6.4 kmh SW 6.0 mph9.7 kmh 29.93 in1013.5 mb 0.00 in0.0 mm 0.00 in0.0 mm 0.00 in0.0 mm
04:25 AM 25.5°F-3.6°C 20.2°F-6.6°C 80% 2.0 mph SW3.2 kmh SW 6.0 mph9.7 kmh 29.92 in1013.2 mb 0.00 in0.0 mm 0.00 in0.0 mm 0.00 in0.0 mm
04:30 AM 25.4°F-3.7°C 20.1°F-6.6°C 80% 3.0 mph SW4.8 kmh SW -- 29.92 in1013.2 mb 0.00 in0.0 mm 0.00 in0.0 mm 0.00 in0.0 mm
04:35 AM 25.3°F-3.7°C 20.0°F-6.7°C 80% 3.0 mph SW4.8 kmh SW -- 29.92 in1013.2 mb 0.00 in0.0 mm 0.00 in0.0 mm 0.00 in0.0 mm
04:40 AM 25.5°F-3.6°C 20.5°F-6.4°C 81% 3.0 mph SW4.8 kmh SW -- 29.91 in1012.9 mb 0.00 in0.0 mm 0.00 in0.0 mm 0.00 in0.0 mm
04:45 AM 25.7°F-3.5°C 20.7°F-6.3°C 81% 7.0 mph S11.3 kmh S -- 29.91 in1012.9 mb 0.00 in0.0 mm 0.00 in0.0 mm 0.00 in0.0 mm
04:50 AM 25.7°F-3.5°C 20.4°F-6.4°C 80% 3.0 mph S4.8 kmh S -- 29.91 in1012.9 mb 0.00 in0.0 mm 0.00 in0.0 mm 0.00 in0.0 mm
04:55 AM 25.6°F-3.6°C 20.3°F-6.5°C 80% 4.0 mph S6.4 kmh S -- 29.91 in1012.9 mb 0.00 in0.0 mm 0.00 in0.0 mm 0.00 in0.0 mm
05:00 AM 25.5°F-3.6°C 20.2°F-6.6°C 80% 4.0 mph S6.4 kmh S -- 29.91 in1012.9 mb 0.00 in0.0 mm 0.00 in0.0 mm 0.00 in0.0 mm
05:05 AM 25.3°F-3.7°C 20.0°F-6.7°C 80% Calm Calm -- 29.91 in1012.9 mb 0.00 in0.0 mm 0.00 in0.0 mm 0.00 in0.0 mm
05:10 AM 25.2°F-3.8°C 20.2°F-6.6°C 81% Calm Calm 5.0 mph8.0 kmh 29.92 in1013.2 mb 0.00 in0.0 mm 0.00 in0.0 mm 0.00 in0.0 mm
05:15 AM 25.2°F-3.8°C 20.2°F-6.6°C 81% 2.0 mph S3.2 kmh S 5.0 mph8.0 kmh 29.92 in1013.2 mb 0.00 in0.0 mm 0.00 in0.0 mm 0.00 in0.0 mm
05:20 AM 25.1°F-3.8°C 20.1°F-6.6°C 81% 2.0 mph S3.2 kmh S -- 29.92 in1013.2 mb 0.00 in0.0 mm 0.00 in0.0 mm 0.00 in0.0 mm
05:25 AM 24.9°F-3.9°C 19.9°F-6.7°C 81% 4.0 mph S6.4 kmh S -- 29.91 in1012.9 mb 0.00 in0.0 mm 0.00 in0.0 mm 0.00 in0.0 mm
05:30 AM 24.9°F-3.9°C 19.9°F-6.7°C 81% 2.0 mph S3.2 kmh S -- 29.90 in1012.5 mb 0.00 in0.0 mm 0.00 in0.0 mm 0.00 in0.0 mm
05:35 AM 24.9°F-3.9°C 19.9°F-6.7°C 81% Calm Calm -- 29.91 in1012.9 mb 0.00 in0.0 mm 0.00 in0.0 mm 0.00 in0.0 mm
05:40 AM 24.9°F-3.9°C 19.9°F-6.7°C 81% Calm Calm -- 29.92 in1013.2 mb 0.00 in0.0 mm 0.00 in0.0 mm 0.00 in0.0 mm
05:45 AM 24.8°F-4.0°C 19.8°F-6.8°C 81% Calm Calm -- 29.91 in1012.9 mb 0.00 in0.0 mm 0.00 in0.0 mm 0.00 in0.0 mm
05:50 AM 24.7°F-4.1°C 19.7°F-6.8°C 81% 2.0 mph S3.2 kmh S -- 29.91 in1012.9 mb 0.00 in0.0 mm 0.00 in0.0 mm 0.00 in0.0 mm
05:55 AM 24.6°F-4.1°C 19.6°F-6.9°C 81% 1.0 mph S1.6 kmh S -- 29.91 in1012.9 mb 0.00 in0.0 mm 0.00 in0.0 mm 0.00 in0.0 mm
06:00 AM 24.5°F-4.2°C 19.5°F-6.9°C 81% 3.0 mph S4.8 kmh S 5.0 mph8.0 kmh 29.91 in1012.9 mb 0.00 in0.0 mm 0.00 in0.0 mm 0.00 in0.0 mm
06:05 AM 24.4°F-4.2°C 19.7°F-6.8°C 82% 2.0 mph S3.2 kmh S 5.0 mph8.0 kmh 29.91 in1012.9 mb 0.00 in0.0 mm 0.00 in0.0 mm 0.00 in0.0 mm
06:10 AM 24.3°F-4.3°C 19.6°F-6.9°C 82% 2.0 mph S3.2 kmh S -- 29.90 in1012.5 mb 0.00 in0.0 mm 0.00 in0.0 mm 0.00 in0.0 mm
06:15 AM 24.2°F-4.3°C 19.5°F-6.9°C 82% 4.0 mph S6.4 kmh S -- 29.90 in1012.5 mb 0.00 in0.0 mm 0.00 in0.0 mm 0.00 in0.0 mm
06:20 AM 24.3°F-4.3°C 19.6°F-6.9°C 82% 3.0 mph S4.8 kmh S -- 29.90 in1012.5 mb 0.00 in0.0 mm 0.00 in0.0 mm 0.00 in0.0 mm
06:25 AM 24.2°F-4.3°C 19.5°F-6.9°C 82% 2.0 mph S3.2 kmh S -- 29.90 in1012.5 mb 0.00 in0.0 mm 0.00 in0.0 mm 0.00 in0.0 mm
06:30 AM 24.3°F-4.3°C 19.6°F-6.9°C 82% 3.0 mph S4.8 kmh S -- 29.90 in1012.5 mb 0.00 in0.0 mm 0.00 in0.0 mm 0.00 in0.0 mm
06:35 AM 24.3°F-4.3°C 19.6°F-6.9°C 82% 2.0 mph S3.2 kmh S -- 29.90 in1012.5 mb 0.00 in0.0 mm 0.00 in0.0 mm 0.00 in0.0 mm
06:40 AM 24.2°F-4.3°C 19.5°F-6.9°C 82% 3.0 mph S4.8 kmh S -- 29.90 in1012.5 mb 0.00 in0.0 mm 0.00 in0.0 mm 0.00 in0.0 mm
06:45 AM 24.1°F-4.4°C 19.4°F-7.0°C 82% 1.0 mph S1.6 kmh S -- 29.91 in1012.9 mb 0.00 in0.0 mm 0.00 in0.0 mm 0.00 in0.0 mm
06:50 AM 24.1°F-4.4°C 19.7°F-6.8°C 83% 1.0 mph S1.6 kmh S 5.0 mph8.0 kmh 29.90 in1012.5 mb 0.00 in0.0 mm 0.00 in0.0 mm 0.00 in0.0 mm
06:55 AM 24.0°F-4.4°C 19.6°F-6.9°C 83% 2.0 mph S3.2 kmh S 5.0 mph8.0 kmh 29.90 in1012.5 mb 0.00 in0.0 mm 0.00 in0.0 mm 0.00 in0.0 mm
07:00 AM 24.2°F-4.3°C 19.8°F-6.8°C 83% 3.0 mph S4.8 kmh S -- 29.90 in1012.5 mb 0.00 in0.0 mm 0.00 in0.0 mm 0.00 in0.0 mm
07:05 AM 24.4°F-4.2°C 20.0°F-6.7°C 83% 2.0 mph S3.2 kmh S -- 29.90 in1012.5 mb 0.00 in0.0 mm 0.00 in0.0 mm 0.00 in0.0 mm
07:10 AM 24.6°F-4.1°C 20.2°F-6.6°C 83% 1.0 mph S1.6 kmh S -- 29.90 in1012.5 mb 0.00 in0.0 mm 0.00 in0.0 mm 0.00 in0.0 mm
07:15 AM 24.7°F-4.1°C 20.3°F-6.5°C 83% 4.0 mph S6.4 kmh S -- 29.90 in1012.5 mb 0.00 in0.0 mm 0.00 in0.0 mm 0.00 in0.0 mm
07:20 AM 24.8°F-4.0°C 20.1°F-6.6°C 82% 4.0 mph S6.4 kmh S -- 29.91 in1012.9 mb 0.00 in0.0 mm 0.00 in0.0 mm 0.00 in0.0 mm
07:25 AM 24.7°F-4.1°C 20.0°F-6.7°C 82% 3.0 mph S4.8 kmh S -- 29.90 in1012.5 mb 0.00 in0.0 mm 0.00 in0.0 mm 0.00 in0.0 mm
07:30 AM 24.6°F-4.1°C 20.2°F-6.6°C 83% 2.0 mph S3.2 kmh S -- 29.90 in1012.5 mb 0.00 in0.0 mm 0.00 in0.0 mm 0.00 in0.0 mm
07:35 AM 24.6°F-4.1°C 20.2°F-6.6°C 83% 2.0 mph S3.2 kmh S -- 29.90 in1012.5 mb 0.00 in0.0 mm 0.00 in0.0 mm 0.00 in0.0 mm
07:40 AM 24.6°F-4.1°C 20.2°F-6.6°C 83% 1.0 mph S1.6 kmh S 5.0 mph8.0 kmh 29.90 in1012.5 mb 0.00 in0.0 mm 0.00 in0.0 mm 0.00 in0.0 mm
07:45 AM 24.7°F-4.1°C 20.3°F-6.5°C 83% 1.0 mph S1.6 kmh S 5.0 mph8.0 kmh 29.89 in1012.2 mb 0.00 in0.0 mm 0.00 in0.0 mm 0.00 in0.0 mm
07:50 AM 24.6°F-4.1°C 20.2°F-6.6°C 83% 4.0 mph S6.4 kmh S -- 29.89 in1012.2 mb 0.00 in0.0 mm 0.00 in0.0 mm 0.00 in0.0 mm
07:55 AM 24.7°F-4.1°C 20.3°F-6.5°C 83% Calm Calm -- 29.89 in1012.2 mb 0.00 in0.0 mm 0.00 in0.0 mm 0.00 in0.0 mm
08:00 AM 24.8°F-4.0°C 20.4°F-6.4°C 83% 1.0 mph S1.6 kmh S -- 29.89 in1012.2 mb 0.00 in0.0 mm 0.00 in0.0 mm 0.00 in0.0 mm
08:05 AM 25.0°F-3.9°C 20.6°F-6.3°C 83% 1.0 mph S1.6 kmh S -- 29.89 in1012.2 mb 0.00 in0.0 mm 0.00 in0.0 mm 0.00 in0.0 mm
08:10 AM 25.1°F-3.8°C 20.7°F-6.3°C 83% 1.0 mph S1.6 kmh S -- 29.89 in1012.2 mb 0.00 in0.0 mm 0.00 in0.0 mm 0.00 in0.0 mm
08:15 AM 25.2°F-3.8°C 20.8°F-6.2°C 83% 3.0 mph S4.8 kmh S -- 29.89 in1012.2 mb 0.00 in0.0 mm 0.00 in0.0 mm 0.00 in0.0 mm
08:20 AM 25.3°F-3.7°C 20.9°F-6.2°C 83% 3.0 mph S4.8 kmh S -- 29.89 in1012.2 mb 0.00 in0.0 mm 0.00 in0.0 mm 0.00 in0.0 mm
08:25 AM 25.4°F-3.7°C 20.7°F-6.3°C 82% 3.0 mph S4.8 kmh S -- 29.88 in1011.9 mb 0.00 in0.0 mm 0.00 in0.0 mm 0.00 in0.0 mm
08:30 AM 25.5°F-3.6°C 21.1°F-6.1°C 83% 2.0 mph S3.2 kmh S 6.0 mph9.7 kmh 29.88 in1011.9 mb 0.00 in0.0 mm 0.00 in0.0 mm 0.00 in0.0 mm
08:35 AM 25.6°F-3.6°C 21.2°F-6.0°C 83% 5.0 mph S8.0 kmh S 6.0 mph9.7 kmh 29.88 in1011.9 mb 0.00 in0.0 mm 0.00 in0.0 mm 0.00 in0.0 mm
08:40 AM 25.8°F-3.4°C 21.1°F-6.1°C 82% 2.0 mph S3.2 kmh S -- 29.88 in1011.9 mb 0.00 in0.0 mm 0.00 in0.0 mm 0.00 in0.0 mm
08:45 AM 26.0°F-3.3°C 21.3°F-5.9°C 82% 3.0 mph S4.8 kmh S -- 29.88 in1011.9 mb 0.00 in0.0 mm 0.00 in0.0 mm 0.00 in0.0 mm
08:50 AM 26.1°F-3.3°C 21.4°F-5.9°C 82% 6.0 mph S9.7 kmh S -- 29.88 in1011.9 mb 0.00 in0.0 mm 0.00 in0.0 mm 0.00 in0.0 mm
08:55 AM 26.2°F-3.2°C 21.5°F-5.8°C 82% 3.0 mph SW4.8 kmh SW -- 29.89 in1012.2 mb 0.00 in0.0 mm 0.00 in0.0 mm 0.00 in0.0 mm
09:00 AM 26.3°F-3.2°C 21.6°F-5.8°C 82% 2.0 mph SW3.2 kmh SW -- 29.89 in1012.2 mb 0.00 in0.0 mm 0.00 in0.0 mm 0.00 in0.0 mm
09:05 AM 26.3°F-3.2°C 21.6°F-5.8°C 82% 2.0 mph SW3.2 kmh SW -- 29.88 in1011.9 mb 0.00 in0.0 mm 0.00 in0.0 mm 0.00 in0.0 mm
09:10 AM 26.3°F-3.2°C 21.6°F-5.8°C 82% 3.0 mph SW4.8 kmh SW -- 29.89 in1012.2 mb 0.00 in0.0 mm 0.00 in0.0 mm 0.00 in0.0 mm
09:15 AM 26.5°F-3.1°C 21.8°F-5.7°C 82% 3.0 mph SSW4.8 kmh SSW -- 29.89 in1012.2 mb 0.00 in0.0 mm 0.00 in0.0 mm 0.00 in0.0 mm
09:20 AM 26.5°F-3.1°C 21.8°F-5.7°C 82% 3.0 mph SSW4.8 kmh SSW 6.0 mph9.7 kmh 29.89 in1012.2 mb 0.00 in0.0 mm 0.00 in0.0 mm 0.00 in0.0 mm
09:25 AM 26.6°F-3.0°C 21.6°F-5.8°C 81% 4.0 mph SSW6.4 kmh SSW 6.0 mph9.7 kmh 29.89 in1012.2 mb 0.00 in0.0 mm 0.00 in0.0 mm 0.00 in0.0 mm
09:30 AM 26.7°F-2.9°C 22.0°F-5.6°C 82% 4.0 mph S6.4 kmh S -- 29.88 in1011.9 mb 0.00 in0.0 mm 0.00 in0.0 mm 0.00 in0.0 mm
09:35 AM 26.8°F-2.9°C 21.8°F-5.7°C 81% 3.0 mph S4.8 kmh S -- 29.88 in1011.9 mb 0.00 in0.0 mm 0.00 in0.0 mm 0.00 in0.0 mm
09:40 AM 26.9°F-2.8°C 21.9°F-5.6°C 81% 3.0 mph S4.8 kmh S -- 29.88 in1011.9 mb 0.00 in0.0 mm 0.00 in0.0 mm 0.00 in0.0 mm
09:45 AM 27.1°F-2.7°C 22.1°F-5.5°C 81% 1.0 mph S1.6 kmh S -- 29.87 in1011.5 mb 0.00 in0.0 mm 0.00 in0.0 mm 0.00 in0.0 mm
09:50 AM 27.2°F-2.7°C 22.2°F-5.4°C 81% 4.0 mph S6.4 kmh S -- 29.87 in1011.5 mb 0.00 in0.0 mm 0.00 in0.0 mm 0.00 in0.0 mm
09:55 AM 27.3°F-2.6°C 22.3°F-5.4°C 81% 4.0 mph S6.4 kmh S -- 29.88 in1011.9 mb 0.00 in0.0 mm 0.00 in0.0 mm 0.00 in0.0 mm
10:00 AM 27.5°F-2.5°C 22.4°F-5.3°C 81% 4.0 mph S6.4 kmh S -- 29.87 in1011.5 mb 0.00 in0.0 mm 0.00 in0.0 mm 0.00 in0.0 mm
10:05 AM 27.6°F-2.4°C 22.5°F-5.3°C 81% 6.0 mph SSW9.7 kmh SSW -- 29.87 in1011.5 mb 0.00 in0.0 mm 0.00 in0.0 mm 0.00 in0.0 mm
10:10 AM 27.9°F-2.3°C 22.5°F-5.3°C 80% 5.0 mph S8.0 kmh S 7.0 mph11.3 kmh 29.87 in1011.5 mb 0.00 in0.0 mm 0.00 in0.0 mm 0.00 in0.0 mm
10:15 AM 28.1°F-2.2°C 22.7°F-5.2°C 80% 5.0 mph SSW8.0 kmh SSW 7.0 mph11.3 kmh 29.87 in1011.5 mb 0.00 in0.0 mm 0.00 in0.0 mm 0.00 in0.0 mm
10:20 AM 28.2°F-2.1°C 22.8°F-5.1°C 80% 4.0 mph SSW6.4 kmh SSW -- 29.87 in1011.5 mb 0.00 in0.0 mm 0.00 in0.0 mm 0.00 in0.0 mm
10:25 AM 28.5°F-1.9°C 23.1°F-4.9°C 80% 5.0 mph SW8.0 kmh SW -- 29.87 in1011.5 mb 0.00 in0.0 mm 0.00 in0.0 mm 0.00 in0.0 mm
10:30 AM 28.7°F-1.8°C 23.0°F-5.0°C 79% 4.0 mph SSW6.4 kmh SSW -- 29.87 in1011.5 mb 0.00 in0.0 mm 0.00 in0.0 mm 0.00 in0.0 mm
10:35 AM 28.8°F-1.8°C 23.1°F-4.9°C 79% 4.0 mph SW6.4 kmh SW -- 29.86 in1011.2 mb 0.00 in0.0 mm 0.00 in0.0 mm 0.00 in0.0 mm
10:40 AM 29.0°F-1.7°C 23.6°F-4.7°C 80% 5.0 mph SSW8.0 kmh SSW -- 29.87 in1011.5 mb 0.00 in0.0 mm 0.00 in0.0 mm 0.00 in0.0 mm
10:45 AM 29.3°F-1.5°C 23.6°F-4.7°C 79% 6.0 mph SW9.7 kmh SW -- 29.87 in1011.5 mb 0.00 in0.0 mm 0.00 in0.0 mm 0.00 in0.0 mm
10:50 AM 29.5°F-1.4°C 23.8°F-4.6°C 79% 3.0 mph S4.8 kmh S -- 29.87 in1011.5 mb 0.00 in0.0 mm 0.00 in0.0 mm 0.00 in0.0 mm
10:55 AM 29.7°F-1.3°C 23.7°F-4.6°C 78% 3.0 mph SW4.8 kmh SW -- 29.87 in1011.5 mb 0.00 in0.0 mm 0.00 in0.0 mm 0.00 in0.0 mm
11:00 AM 29.9°F-1.2°C 23.9°F-4.5°C 78% 3.0 mph SSW4.8 kmh SSW 7.0 mph11.3 kmh 29.86 in1011.2 mb 0.00 in0.0 mm 0.00 in0.0 mm 0.00 in0.0 mm
11:05 AM 30.1°F-1.1°C 24.1°F-4.4°C 78% 4.0 mph SSW6.4 kmh SSW 7.0 mph11.3 kmh 29.86 in1011.2 mb 0.00 in0.0 mm 0.00 in0.0 mm 0.00 in0.0 mm
11:10 AM 30.4°F-0.9°C 24.4°F-4.2°C 78% 4.0 mph SW6.4 kmh SW -- 29.86 in1011.2 mb 0.00 in0.0 mm 0.00 in0.0 mm 0.00 in0.0 mm
11:15 AM 30.8°F-0.7°C 24.5°F-4.2°C 77% 4.0 mph SW6.4 kmh SW -- 29.86 in1011.2 mb 0.00 in0.0 mm 0.00 in0.0 mm 0.00 in0.0 mm
11:20 AM 31.1°F-0.5°C 24.7°F-4.1°C 77% 3.0 mph SSW4.8 kmh SSW -- 29.86 in1011.2 mb 0.00 in0.0 mm 0.00 in0.0 mm 0.00 in0.0 mm
11:25 AM 31.4°F-0.3°C 25.0°F-3.9°C 77% 5.0 mph SSW8.0 kmh SSW -- 29.85 in1010.8 mb 0.00 in0.0 mm 0.00 in0.0 mm 0.00 in0.0 mm
11:30 AM 31.7°F-0.2°C 25.0°F-3.9°C 76% 6.0 mph SSW9.7 kmh SSW -- 29.85 in1010.8 mb 0.00 in0.0 mm 0.00 in0.0 mm 0.00 in0.0 mm
11:35 AM 32.0°F0.0°C 25.3°F-3.7°C 76% 6.0 mph SSW9.7 kmh SSW -- 29.85 in1010.8 mb 0.00 in0.0 mm 0.00 in0.0 mm 0.00 in0.0 mm
11:40 AM 32.1°F0.1°C 25.1°F-3.8°C 75% 5.0 mph SW8.0 kmh SW -- 29.85 in1010.8 mb 0.00 in0.0 mm 0.00 in0.0 mm 0.00 in0.0 mm
11:45 AM 32.3°F0.2°C 25.3°F-3.7°C 75% 6.0 mph SW9.7 kmh SW -- 29.85 in1010.8 mb 0.00 in0.0 mm 0.00 in0.0 mm 0.00 in0.0 mm
11:50 AM 32.5°F0.3°C 25.5°F-3.6°C 75% 4.0 mph SSW6.4 kmh SSW 9.0 mph14.5 kmh 29.84 in1010.5 mb 0.00 in0.0 mm 0.00 in0.0 mm 0.00 in0.0 mm
11:55 AM 32.7°F0.4°C 25.7°F-3.5°C 75% 4.0 mph SSW6.4 kmh SSW 9.0 mph14.5 kmh 29.84 in1010.5 mb 0.00 in0.0 mm 0.00 in0.0 mm 0.00 in0.0 mm
12:00 PM 32.9°F0.5°C 25.5°F-3.6°C 74% 5.0 mph SSW8.0 kmh SSW -- 29.83 in1010.2 mb 0.00 in0.0 mm 0.00 in0.0 mm 0.00 in0.0 mm
12:05 PM 33.2°F0.7°C 25.8°F-3.4°C 74% 8.0 mph SW12.9 kmh SW -- 29.83 in1010.2 mb 0.00 in0.0 mm 0.00 in0.0 mm 0.00 in0.0 mm
12:10 PM 33.5°F0.8°C 26.1°F-3.3°C 74% 4.0 mph SW6.4 kmh SW -- 29.83 in1010.2 mb 0.00 in0.0 mm 0.00 in0.0 mm 0.00 in0.0 mm
12:15 PM 33.8°F1.0°C 26.4°F-3.1°C 74% 4.0 mph SW6.4 kmh SW -- 29.82 in1009.8 mb 0.00 in0.0 mm 0.00 in0.0 mm 0.00 in0.0 mm
12:20 PM 34.0°F1.1°C 26.3°F-3.2°C 73% 3.0 mph SW4.8 kmh SW -- 29.82 in1009.8 mb 0.00 in0.0 mm 0.00 in0.0 mm 0.00 in0.0 mm
12:25 PM 34.3°F1.3°C 26.6°F-3.0°C 73% 6.0 mph SW9.7 kmh SW -- 29.82 in1009.8 mb 0.00 in0.0 mm 0.00 in0.0 mm 0.00 in0.0 mm
12:30 PM 34.4°F1.3°C 26.3°F-3.2°C 72% 5.0 mph SSW8.0 kmh SSW -- 29.82 in1009.8 mb 0.00 in0.0 mm 0.00 in0.0 mm 0.00 in0.0 mm
12:35 PM 34.6°F1.4°C 26.8°F-2.9°C 73% 4.0 mph SW6.4 kmh SW -- 29.82 in1009.8 mb 0.00 in0.0 mm 0.00 in0.0 mm 0.00 in0.0 mm
12:40 PM 34.8°F1.6°C 26.7°F-2.9°C 72% 6.0 mph SSW9.7 kmh SSW 10.0 mph16.1 kmh 29.81 in1009.5 mb 0.00 in0.0 mm 0.00 in0.0 mm 0.00 in0.0 mm
12:45 PM 35.2°F1.8°C 27.1°F-2.7°C 72% 6.0 mph SSW9.7 kmh SSW 10.0 mph16.1 kmh 29.81 in1009.5 mb 0.00 in0.0 mm 0.00 in0.0 mm 0.00 in0.0 mm
12:50 PM 35.4°F1.9°C 27.3°F-2.6°C 72% 4.0 mph SSW6.4 kmh SSW -- 29.81 in1009.5 mb 0.00 in0.0 mm 0.00 in0.0 mm 0.00 in0.0 mm
12:55 PM 35.6°F2.0°C 27.1°F-2.7°C 71% 6.0 mph SW9.7 kmh SW -- 29.80 in1009.1 mb 0.00 in0.0 mm 0.00 in0.0 mm 0.00 in0.0 mm
01:00 PM 35.9°F2.2°C 27.8°F-2.3°C 72% 7.0 mph SW11.3 kmh SW -- 29.80 in1009.1 mb 0.00 in0.0 mm 0.00 in0.0 mm 0.00 in0.0 mm
01:05 PM 35.8°F2.1°C 27.0°F-2.8°C 70% 4.0 mph SW6.4 kmh SW -- 29.79 in1008.8 mb 0.00 in0.0 mm 0.00 in0.0 mm 0.00 in0.0 mm
01:10 PM 35.9°F2.2°C 27.1°F-2.7°C 70% 7.0 mph S11.3 kmh S -- 29.78 in1008.5 mb 0.00 in0.0 mm 0.00 in0.0 mm 0.00 in0.0 mm
01:15 PM 35.9°F2.2°C 27.4°F-2.6°C 71% 4.0 mph SSW6.4 kmh SSW -- 29.78 in1008.5 mb 0.00 in0.0 mm 0.00 in0.0 mm 0.00 in0.0 mm
01:20 PM 36.0°F2.2°C 27.2°F-2.7°C 70% 7.0 mph SW11.3 kmh SW -- 29.78 in1008.5 mb 0.00 in0.0 mm 0.00 in0.0 mm 0.00 in0.0 mm
01:25 PM 36.1°F2.3°C 27.3°F-2.6°C 70% 7.0 mph SW11.3 kmh SW -- 29.77 in1008.1 mb 0.01 in0.3 mm 0.12 in3.0 mm 0.01 in0.3 mm
01:30 PM 36.1°F2.3°C 27.3°F-2.6°C 70% 6.0 mph SSW9.7 kmh SSW 12.0 mph19.3 kmh 29.78 in1008.5 mb 0.01 in0.3 mm 0.00 in0.0 mm 0.01 in0.3 mm
01:35 PM 36.3°F2.4°C 27.5°F-2.5°C 70% 4.0 mph SSW6.4 kmh SSW 12.0 mph19.3 kmh 29.77 in1008.1 mb 0.01 in0.3 mm 0.00 in0.0 mm 0.01 in0.3 mm
01:40 PM 36.5°F2.5°C 27.7°F-2.4°C 70% 6.0 mph SW9.7 kmh SW -- 29.77 in1008.1 mb 0.01 in0.3 mm 0.00 in0.0 mm 0.01 in0.3 mm
01:45 PM 36.6°F2.6°C 27.8°F-2.3°C 70% 7.0 mph SW11.3 kmh SW -- 29.77 in1008.1 mb 0.02 in0.5 mm 0.12 in3.0 mm 0.02 in0.5 mm
01:50 PM 36.7°F2.6°C 27.9°F-2.3°C 70% 7.0 mph SW11.3 kmh SW -- 29.78 in1008.5 mb 0.02 in0.5 mm 0.00 in0.0 mm 0.02 in0.5 mm
01:55 PM 36.6°F2.6°C 28.1°F-2.2°C 71% 6.0 mph SW9.7 kmh SW -- 29.77 in1008.1 mb 0.02 in0.5 mm 0.00 in0.0 mm 0.02 in0.5 mm
02:00 PM 36.6°F2.6°C 28.1°F-2.2°C 71% 8.0 mph SW12.9 kmh SW -- 29.77 in1008.1 mb 0.02 in0.5 mm 0.00 in0.0 mm 0.02 in0.5 mm
02:05 PM 36.6°F2.6°C 28.1°F-2.2°C 71% 6.0 mph SW9.7 kmh SW -- 29.77 in1008.1 mb 0.02 in0.5 mm 0.00 in0.0 mm 0.02 in0.5 mm
02:10 PM 36.8°F2.7°C 28.3°F-2.1°C 71% 4.0 mph SW6.4 kmh SW -- 29.76 in1007.8 mb 0.02 in0.5 mm 0.00 in0.0 mm 0.02 in0.5 mm
02:15 PM 37.0°F2.8°C 28.5°F-1.9°C 71% 5.0 mph SSW8.0 kmh SSW -- 29.76 in1007.8 mb 0.02 in0.5 mm 0.00 in0.0 mm 0.02 in0.5 mm
02:20 PM 37.1°F2.8°C 28.6°F-1.9°C 71% 7.0 mph SSW11.3 kmh SSW 9.0 mph14.5 kmh 29.75 in1007.5 mb 0.02 in0.5 mm 0.00 in0.0 mm 0.02 in0.5 mm
02:25 PM 37.2°F2.9°C 28.3°F-2.1°C 70% 5.0 mph SW8.0 kmh SW 9.0 mph14.5 kmh 29.75 in1007.5 mb 0.01 in0.3 mm 0.00 in0.0 mm 0.02 in0.5 mm
02:30 PM 37.4°F3.0°C 28.5°F-1.9°C 70% 7.0 mph SSW11.3 kmh SSW -- 29.75 in1007.5 mb 0.01 in0.3 mm 0.00 in0.0 mm 0.02 in0.5 mm
02:35 PM 37.4°F3.0°C 28.2°F-2.1°C 69% 5.0 mph SSW8.0 kmh SSW -- 29.75 in1007.5 mb 0.01 in0.3 mm 0.00 in0.0 mm 0.02 in0.5 mm
02:40 PM 37.5°F3.1°C 28.6°F-1.9°C 70% 6.0 mph SW9.7 kmh SW -- 29.74 in1007.1 mb 0.01 in0.3 mm 0.00 in0.0 mm 0.02 in0.5 mm
02:45 PM 37.6°F3.1°C 28.7°F-1.8°C 70% 6.0 mph SW9.7 kmh SW -- 29.74 in1007.1 mb 0.00 in0.0 mm 0.00 in0.0 mm 0.02 in0.5 mm
02:50 PM 37.8°F3.2°C 28.9°F-1.7°C 70% 2.0 mph SW3.2 kmh SW -- 29.74 in1007.1 mb 0.00 in0.0 mm 0.00 in0.0 mm 0.02 in0.5 mm
02:55 PM 37.9°F3.3°C 29.0°F-1.7°C 70% 3.0 mph SSE4.8 kmh SSE -- 29.73 in1006.8 mb 0.00 in0.0 mm 0.00 in0.0 mm 0.02 in0.5 mm
03:00 PM 38.0°F3.3°C 28.7°F-1.8°C 69% 5.0 mph SSW8.0 kmh SSW -- 29.72 in1006.4 mb 0.00 in0.0 mm 0.00 in0.0 mm 0.02 in0.5 mm
03:05 PM 38.1°F3.4°C 28.8°F-1.8°C 69% 4.0 mph S6.4 kmh S -- 29.72 in1006.4 mb 0.00 in0.0 mm 0.00 in0.0 mm 0.02 in0.5 mm
03:10 PM 38.2°F3.4°C 28.6°F-1.9°C 68% 3.0 mph SSW4.8 kmh SSW 11.0 mph17.7 kmh 29.72 in1006.4 mb 0.00 in0.0 mm 0.00 in0.0 mm 0.02 in0.5 mm
03:15 PM 38.2°F3.4°C 28.9°F-1.7°C 69% 6.0 mph SSE9.7 kmh SSE 11.0 mph17.7 kmh 29.72 in1006.4 mb 0.00 in0.0 mm 0.00 in0.0 mm 0.02 in0.5 mm
03:20 PM 38.2°F3.4°C 28.9°F-1.7°C 69% 7.0 mph S11.3 kmh S -- 29.71 in1006.1 mb 0.00 in0.0 mm 0.00 in0.0 mm 0.02 in0.5 mm
03:25 PM 38.0°F3.3°C 28.7°F-1.8°C 69% 8.0 mph S12.9 kmh S -- 29.72 in1006.4 mb 0.00 in0.0 mm 0.00 in0.0 mm 0.02 in0.5 mm
03:30 PM 37.9°F3.3°C 28.7°F-1.8°C 69% 4.0 mph SSW6.4 kmh SSW -- 29.72 in1006.4 mb 0.00 in0.0 mm 0.00 in0.0 mm 0.02 in0.5 mm
03:35 PM 37.9°F3.3°C 28.7°F-1.8°C 69% 4.0 mph S6.4 kmh S -- 29.72 in1006.4 mb 0.00 in0.0 mm 0.00 in0.0 mm 0.02 in0.5 mm
03:40 PM 38.0°F3.3°C 28.7°F-1.8°C 69% 3.0 mph SSW4.8 kmh SSW -- 29.71 in1006.1 mb 0.00 in0.0 mm 0.00 in0.0 mm 0.02 in0.5 mm
03:45 PM 38.1°F3.4°C 28.5°F-1.9°C 68% 4.0 mph S6.4 kmh S -- 29.70 in1005.8 mb 0.00 in0.0 mm 0.00 in0.0 mm 0.02 in0.5 mm
03:50 PM 38.1°F3.4°C 28.8°F-1.8°C 69% 8.0 mph S12.9 kmh S -- 29.70 in1005.8 mb 0.00 in0.0 mm 0.00 in0.0 mm 0.02 in0.5 mm
03:55 PM 38.0°F3.3°C 28.7°F-1.8°C 69% 4.0 mph S6.4 kmh S -- 29.70 in1005.8 mb 0.00 in0.0 mm 0.00 in0.0 mm 0.02 in0.5 mm
04:00 PM 38.0°F3.3°C 28.7°F-1.8°C 69% 4.0 mph S6.4 kmh S 11.0 mph17.7 kmh 29.70 in1005.8 mb 0.00 in0.0 mm 0.00 in0.0 mm 0.02 in0.5 mm
04:05 PM 38.0°F3.3°C 28.7°F-1.8°C 69% 5.0 mph S8.0 kmh S 11.0 mph17.7 kmh 29.70 in1005.8 mb 0.00 in0.0 mm 0.00 in0.0 mm 0.02 in0.5 mm
04:10 PM 37.9°F3.3°C 28.7°F-1.8°C 69% 2.0 mph SW3.2 kmh SW -- 29.70 in1005.8 mb 0.00 in0.0 mm 0.00 in0.0 mm 0.02 in0.5 mm
04:15 PM 37.9°F3.3°C 29.0°F-1.7°C 70% 9.0 mph S14.5 kmh S -- 29.69 in1005.4 mb 0.00 in0.0 mm 0.00 in0.0 mm 0.02 in0.5 mm
04:20 PM 37.9°F3.3°C 29.0°F-1.7°C 70% 5.0 mph S8.0 kmh S -- 29.69 in1005.4 mb 0.00 in0.0 mm 0.00 in0.0 mm 0.02 in0.5 mm
04:25 PM 37.9°F3.3°C 29.0°F-1.7°C 70% 6.0 mph S9.7 kmh S -- 29.69 in1005.4 mb 0.00 in0.0 mm 0.00 in0.0 mm 0.02 in0.5 mm
04:30 PM 37.9°F3.3°C 29.0°F-1.7°C 70% 4.0 mph S6.4 kmh S -- 29.69 in1005.4 mb 0.00 in0.0 mm 0.00 in0.0 mm 0.02 in0.5 mm
04:35 PM 37.9°F3.3°C 28.7°F-1.8°C 69% 5.0 mph S8.0 kmh S -- 29.69 in1005.4 mb 0.00 in0.0 mm 0.00 in0.0 mm 0.02 in0.5 mm
04:40 PM 37.9°F3.3°C 29.0°F-1.7°C 70% 3.0 mph SSW4.8 kmh SSW -- 29.69 in1005.4 mb 0.00 in0.0 mm 0.00 in0.0 mm 0.02 in0.5 mm
04:45 PM 37.9°F3.3°C 29.0°F-1.7°C 70% 7.0 mph S11.3 kmh S -- 29.68 in1005.1 mb 0.00 in0.0 mm 0.00 in0.0 mm 0.02 in0.5 mm
04:50 PM 38.0°F3.3°C 29.1°F-1.6°C 70% 4.0 mph S6.4 kmh S 13.0 mph20.9 kmh 29.68 in1005.1 mb 0.00 in0.0 mm 0.00 in0.0 mm 0.02 in0.5 mm
04:55 PM 38.0°F3.3°C 29.1°F-1.6°C 70% 5.0 mph SSE8.0 kmh SSE 13.0 mph20.9 kmh 29.68 in1005.1 mb 0.00 in0.0 mm 0.00 in0.0 mm 0.02 in0.5 mm
05:00 PM 38.1°F3.4°C 29.2°F-1.6°C 70% 4.0 mph S6.4 kmh S -- 29.68 in1005.1 mb 0.00 in0.0 mm 0.00 in0.0 mm 0.02 in0.5 mm
05:05 PM 38.1°F3.4°C 29.2°F-1.6°C 70% 5.0 mph S8.0 kmh S -- 29.68 in1005.1 mb 0.00 in0.0 mm 0.00 in0.0 mm 0.02 in0.5 mm
05:10 PM 38.2°F3.4°C 28.9°F-1.7°C 69% 11.0 mph SSW17.7 kmh SSW -- 29.68 in1005.1 mb 0.00 in0.0 mm 0.00 in0.0 mm 0.02 in0.5 mm
05:15 PM 38.1°F3.4°C 28.8°F-1.8°C 69% 6.0 mph S9.7 kmh S -- 29.68 in1005.1 mb 0.00 in0.0 mm 0.00 in0.0 mm 0.02 in0.5 mm
05:20 PM 37.9°F3.3°C 29.0°F-1.7°C 70% 9.0 mph S14.5 kmh S -- 29.68 in1005.1 mb 0.00 in0.0 mm 0.00 in0.0 mm 0.02 in0.5 mm
05:25 PM 38.0°F3.3°C 29.1°F-1.6°C 70% 7.0 mph SSW11.3 kmh SSW -- 29.68 in1005.1 mb 0.00 in0.0 mm 0.00 in0.0 mm 0.02 in0.5 mm
05:30 PM 37.8°F3.2°C 28.9°F-1.7°C 70% 5.0 mph SSW8.0 kmh SSW -- 29.68 in1005.1 mb 0.00 in0.0 mm 0.00 in0.0 mm 0.02 in0.5 mm
05:35 PM 37.9°F3.3°C 29.0°F-1.7°C 70% 6.0 mph SSE9.7 kmh SSE -- 29.68 in1005.1 mb 0.00 in0.0 mm 0.00 in0.0 mm 0.02 in0.5 mm
05:40 PM 37.9°F3.3°C 29.0°F-1.7°C 70% 6.0 mph SSW9.7 kmh SSW 13.0 mph20.9 kmh 29.68 in1005.1 mb 0.00 in0.0 mm 0.00 in0.0 mm 0.02 in0.5 mm
05:45 PM 37.9°F3.3°C 29.0°F-1.7°C 70% 5.0 mph SSW8.0 kmh SSW 13.0 mph20.9 kmh 29.68 in1005.1 mb 0.00 in0.0 mm 0.00 in0.0 mm 0.02 in0.5 mm
05:50 PM 37.8°F3.2°C 28.9°F-1.7°C 70% 11.0 mph S17.7 kmh S -- 29.67 in1004.7 mb 0.00 in0.0 mm 0.00 in0.0 mm 0.02 in0.5 mm
05:55 PM 37.7°F3.2°C 29.2°F-1.6°C 71% 5.0 mph S8.0 kmh S -- 29.67 in1004.7 mb 0.00 in0.0 mm 0.00 in0.0 mm 0.02 in0.5 mm
06:00 PM 37.6°F3.1°C 29.1°F-1.6°C 71% 6.0 mph SSW9.7 kmh SSW -- 29.68 in1005.1 mb 0.00 in0.0 mm 0.00 in0.0 mm 0.02 in0.5 mm
06:05 PM 37.5°F3.1°C 29.0°F-1.7°C 71% 9.0 mph SW14.5 kmh SW -- 29.68 in1005.1 mb 0.00 in0.0 mm 0.00 in0.0 mm 0.02 in0.5 mm
06:10 PM 37.3°F2.9°C 29.1°F-1.6°C 72% 7.0 mph S11.3 kmh S -- 29.68 in1005.1 mb 0.00 in0.0 mm 0.00 in0.0 mm 0.02 in0.5 mm
06:15 PM 37.3°F2.9°C 29.1°F-1.6°C 72% 6.0 mph S9.7 kmh S -- 29.68 in1005.1 mb 0.00 in0.0 mm 0.00 in0.0 mm 0.02 in0.5 mm
06:20 PM 37.3°F2.9°C 29.1°F-1.6°C 72% 4.0 mph SSW6.4 kmh SSW -- 29.68 in1005.1 mb 0.00 in0.0 mm 0.00 in0.0 mm 0.02 in0.5 mm
06:25 PM 37.1°F2.8°C 28.9°F-1.7°C 72% 4.0 mph SSW6.4 kmh SSW -- 29.68 in1005.1 mb 0.00 in0.0 mm 0.00 in0.0 mm 0.02 in0.5 mm
06:30 PM 37.1°F2.8°C 28.9°F-1.7°C 72% 6.0 mph SSW9.7 kmh SSW 9.0 mph14.5 kmh 29.68 in1005.1 mb 0.00 in0.0 mm 0.00 in0.0 mm 0.02 in0.5 mm
06:35 PM 37.0°F2.8°C 29.2°F-1.6°C 73% 5.0 mph S8.0 kmh S 9.0 mph14.5 kmh 29.68 in1005.1 mb 0.00 in0.0 mm 0.00 in0.0 mm 0.02 in0.5 mm
06:40 PM 37.1°F2.8°C 28.9°F-1.7°C 72% 6.0 mph SSW9.7 kmh SSW -- 29.68 in1005.1 mb 0.00 in0.0 mm 0.00 in0.0 mm 0.02 in0.5 mm
06:45 PM 37.1°F2.8°C 28.9°F-1.7°C 72% 8.0 mph SW12.9 kmh SW -- 29.68 in1005.1 mb 0.00 in0.0 mm 0.00 in0.0 mm 0.02 in0.5 mm
06:50 PM 37.1°F2.8°C 29.3°F-1.5°C 73% 5.0 mph SSW8.0 kmh SSW -- 29.69 in1005.4 mb 0.00 in0.0 mm 0.00 in0.0 mm 0.02 in0.5 mm
06:55 PM 37.0°F2.8°C 29.2°F-1.6°C 73% 4.0 mph SSW6.4 kmh SSW -- 29.68 in1005.1 mb 0.00 in0.0 mm 0.00 in0.0 mm 0.02 in0.5 mm
07:00 PM 36.9°F2.7°C 29.1°F-1.6°C 73% 4.0 mph SW6.4 kmh SW -- 29.68 in1005.1 mb 0.00 in0.0 mm 0.00 in0.0 mm 0.02 in0.5 mm
07:05 PM 37.0°F2.8°C 29.2°F-1.6°C 73% 5.0 mph SSW8.0 kmh SSW -- 29.68 in1005.1 mb 0.00 in0.0 mm 0.00 in0.0 mm 0.02 in0.5 mm
07:10 PM 37.1°F2.8°C 29.3°F-1.5°C 73% 5.0 mph SW8.0 kmh SW -- 29.68 in1005.1 mb 0.00 in0.0 mm 0.00 in0.0 mm 0.02 in0.5 mm
07:15 PM 37.1°F2.8°C 29.3°F-1.5°C 73% 5.0 mph SSW8.0 kmh SSW -- 29.69 in1005.4 mb 0.00 in0.0 mm 0.00 in0.0 mm 0.02 in0.5 mm
07:20 PM 37.3°F2.9°C 29.5°F-1.4°C 73% 7.0 mph SSW11.3 kmh SSW 10.0 mph16.1 kmh 29.69 in1005.4 mb 0.00 in0.0 mm 0.00 in0.0 mm 0.02 in0.5 mm
07:25 PM 37.3°F2.9°C 29.1°F-1.6°C 72% 5.0 mph SW8.0 kmh SW 10.0 mph16.1 kmh 29.70 in1005.8 mb 0.00 in0.0 mm 0.00 in0.0 mm 0.02 in0.5 mm
07:30 PM 37.5°F3.1°C 29.3°F-1.5°C 72% 3.0 mph SW4.8 kmh SW -- 29.70 in1005.8 mb 0.00 in0.0 mm 0.00 in0.0 mm 0.02 in0.5 mm
07:35 PM 37.5°F3.1°C 29.3°F-1.5°C 72% 6.0 mph SW9.7 kmh SW -- 29.70 in1005.8 mb 0.00 in0.0 mm 0.00 in0.0 mm 0.02 in0.5 mm
07:40 PM 37.4°F3.0°C 29.2°F-1.6°C 72% 4.0 mph SW6.4 kmh SW -- 29.70 in1005.8 mb 0.00 in0.0 mm 0.00 in0.0 mm 0.02 in0.5 mm
07:45 PM 37.5°F3.1°C 29.3°F-1.5°C 72% 5.0 mph SW8.0 kmh SW -- 29.71 in1006.1 mb 0.00 in0.0 mm 0.00 in0.0 mm 0.02 in0.5 mm
07:50 PM 37.4°F3.0°C 29.5°F-1.4°C 73% 5.0 mph SW8.0 kmh SW -- 29.71 in1006.1 mb 0.00 in0.0 mm 0.00 in0.0 mm 0.02 in0.5 mm
07:55 PM 37.3°F2.9°C 29.5°F-1.4°C 73% 4.0 mph SW6.4 kmh SW -- 29.71 in1006.1 mb 0.00 in0.0 mm 0.00 in0.0 mm 0.02 in0.5 mm
08:00 PM 37.2°F2.9°C 29.4°F-1.4°C 73% 2.0 mph SW3.2 kmh SW -- 29.71 in1006.1 mb 0.00 in0.0 mm 0.00 in0.0 mm 0.02 in0.5 mm
08:05 PM 37.2°F2.9°C 29.4°F-1.4°C 73% 3.0 mph SW4.8 kmh SW -- 29.71 in1006.1 mb 0.00 in0.0 mm 0.00 in0.0 mm 0.02 in0.5 mm
08:10 PM 37.0°F2.8°C 29.2°F-1.6°C 73% 3.0 mph SW4.8 kmh SW 4.0 mph6.4 kmh 29.71 in1006.1 mb 0.00 in0.0 mm 0.00 in0.0 mm 0.02 in0.5 mm
08:15 PM 36.8°F2.7°C 29.3°F-1.5°C 74% 3.0 mph SW4.8 kmh SW 4.0 mph6.4 kmh 29.71 in1006.1 mb 0.00 in0.0 mm 0.00 in0.0 mm 0.02 in0.5 mm
08:20 PM 36.7°F2.6°C 29.2°F-1.6°C 74% 2.0 mph SW3.2 kmh SW -- 29.71 in1006.1 mb 0.00 in0.0 mm 0.00 in0.0 mm 0.02 in0.5 mm
08:25 PM 36.8°F2.7°C 29.3°F-1.5°C 74% 1.0 mph SW1.6 kmh SW -- 29.72 in1006.4 mb 0.00 in0.0 mm 0.00 in0.0 mm 0.02 in0.5 mm
08:30 PM 36.8°F2.7°C 29.3°F-1.5°C 74% 3.0 mph SW4.8 kmh SW -- 29.72 in1006.4 mb 0.00 in0.0 mm 0.00 in0.0 mm 0.02 in0.5 mm
08:35 PM 36.8°F2.7°C 29.3°F-1.5°C 74% 4.0 mph SW6.4 kmh SW -- 29.72 in1006.4 mb 0.00 in0.0 mm 0.00 in0.0 mm 0.02 in0.5 mm
08:40 PM 37.1°F2.8°C 29.3°F-1.5°C 73% 3.0 mph SW4.8 kmh SW -- 29.72 in1006.4 mb 0.00 in0.0 mm 0.00 in0.0 mm 0.02 in0.5 mm
08:45 PM 37.5°F3.1°C 29.6°F-1.3°C 73% 4.0 mph SW6.4 kmh SW -- 29.72 in1006.4 mb 0.00 in0.0 mm 0.00 in0.0 mm 0.02 in0.5 mm
08:50 PM 37.9°F3.3°C 29.7°F-1.3°C 72% 5.0 mph SW8.0 kmh SW -- 29.72 in1006.4 mb 0.00 in0.0 mm 0.00 in0.0 mm 0.02 in0.5 mm
08:55 PM 38.2°F3.4°C 29.6°F-1.3°C 71% 3.0 mph SW4.8 kmh SW -- 29.72 in1006.4 mb 0.00 in0.0 mm 0.00 in0.0 mm 0.02 in0.5 mm
09:00 PM 38.3°F3.5°C 29.7°F-1.3°C 71% 3.0 mph SW4.8 kmh SW 10.0 mph16.1 kmh 29.72 in1006.4 mb 0.00 in0.0 mm 0.00 in0.0 mm 0.02 in0.5 mm
09:05 PM 38.3°F3.5°C 29.7°F-1.3°C 71% 3.0 mph SW4.8 kmh SW 10.0 mph16.1 kmh 29.72 in1006.4 mb 0.00 in0.0 mm 0.00 in0.0 mm 0.02 in0.5 mm
09:10 PM 38.3°F3.5°C 29.7°F-1.3°C 71% 4.0 mph SW6.4 kmh SW -- 29.72 in1006.4 mb 0.00 in0.0 mm 0.00 in0.0 mm 0.02 in0.5 mm
09:15 PM 38.3°F3.5°C 29.7°F-1.3°C 71% 4.0 mph SW6.4 kmh SW -- 29.72 in1006.4 mb 0.00 in0.0 mm 0.00 in0.0 mm 0.02 in0.5 mm
09:20 PM 38.2°F3.4°C 29.6°F-1.3°C 71% 3.0 mph SW4.8 kmh SW -- 29.72 in1006.4 mb 0.00 in0.0 mm 0.00 in0.0 mm 0.02 in0.5 mm
09:25 PM 38.0°F3.3°C 29.4°F-1.4°C 71% 6.0 mph SW9.7 kmh SW -- 29.72 in1006.4 mb 0.00 in0.0 mm 0.00 in0.0 mm 0.02 in0.5 mm
09:30 PM 38.0°F3.3°C 29.8°F-1.2°C 72% 3.0 mph SW4.8 kmh SW -- 29.73 in1006.8 mb 0.00 in0.0 mm 0.00 in0.0 mm 0.02 in0.5 mm
09:35 PM 37.9°F3.3°C 29.7°F-1.3°C 72% 6.0 mph SW9.7 kmh SW -- 29.73 in1006.8 mb 0.00 in0.0 mm 0.00 in0.0 mm 0.02 in0.5 mm
09:40 PM 38.0°F3.3°C 29.8°F-1.2°C 72% 4.0 mph SW6.4 kmh SW -- 29.73 in1006.8 mb 0.00 in0.0 mm 0.00 in0.0 mm 0.02 in0.5 mm
09:45 PM 37.9°F3.3°C 29.7°F-1.3°C 72% 3.0 mph SW4.8 kmh SW -- 29.74 in1007.1 mb 0.00 in0.0 mm 0.00 in0.0 mm 0.02 in0.5 mm
09:50 PM 37.9°F3.3°C 29.7°F-1.3°C 72% 5.0 mph SW8.0 kmh SW 10.0 mph16.1 kmh 29.74 in1007.1 mb 0.00 in0.0 mm 0.00 in0.0 mm 0.02 in0.5 mm
09:55 PM 37.9°F3.3°C 29.7°F-1.3°C 72% 5.0 mph SW8.0 kmh SW 10.0 mph16.1 kmh 29.74 in1007.1 mb 0.00 in0.0 mm 0.00 in0.0 mm 0.02 in0.5 mm
10:00 PM 37.8°F3.2°C 29.6°F-1.3°C 72% 5.0 mph SW8.0 kmh SW -- 29.74 in1007.1 mb 0.00 in0.0 mm 0.00 in0.0 mm 0.02 in0.5 mm
10:05 PM 37.7°F3.2°C 29.5°F-1.4°C 72% 4.0 mph SSW6.4 kmh SSW -- 29.74 in1007.1 mb 0.00 in0.0 mm 0.00 in0.0 mm 0.02 in0.5 mm
10:10 PM 37.6°F3.1°C 29.4°F-1.4°C 72% 9.0 mph WSW14.5 kmh WSW -- 29.74 in1007.1 mb 0.00 in0.0 mm 0.00 in0.0 mm 0.02 in0.5 mm
10:15 PM 37.5°F3.1°C 29.6°F-1.3°C 73% 5.0 mph WSW8.0 kmh WSW -- 29.75 in1007.5 mb 0.00 in0.0 mm 0.00 in0.0 mm 0.02 in0.5 mm
10:20 PM 37.5°F3.1°C 29.6°F-1.3°C 73% 3.0 mph SW4.8 kmh SW -- 29.74 in1007.1 mb 0.00 in0.0 mm 0.00 in0.0 mm 0.02 in0.5 mm
10:25 PM 37.4°F3.0°C 29.5°F-1.4°C 73% 3.0 mph SW4.8 kmh SW -- 29.74 in1007.1 mb 0.00 in0.0 mm 0.00 in0.0 mm 0.02 in0.5 mm
10:30 PM 37.3°F2.9°C 29.5°F-1.4°C 73% 2.0 mph SW3.2 kmh SW -- 29.74 in1007.1 mb 0.00 in0.0 mm 0.00 in0.0 mm 0.02 in0.5 mm
10:35 PM 37.2°F2.9°C 29.4°F-1.4°C 73% 3.0 mph SW4.8 kmh SW -- 29.74 in1007.1 mb 0.00 in0.0 mm 0.00 in0.0 mm 0.02 in0.5 mm
10:40 PM 37.1°F2.8°C 29.3°F-1.5°C 73% 2.0 mph WSW3.2 kmh WSW 6.0 mph9.7 kmh 29.75 in1007.5 mb 0.00 in0.0 mm 0.00 in0.0 mm 0.02 in0.5 mm
10:45 PM 37.1°F2.8°C 29.3°F-1.5°C 73% 2.0 mph SW3.2 kmh SW 6.0 mph9.7 kmh 29.75 in1007.5 mb 0.00 in0.0 mm 0.00 in0.0 mm 0.02 in0.5 mm
10:50 PM 37.1°F2.8°C 29.3°F-1.5°C 73% 4.0 mph SW6.4 kmh SW -- 29.74 in1007.1 mb 0.00 in0.0 mm 0.00 in0.0 mm 0.02 in0.5 mm
10:55 PM 37.2°F2.9°C 29.4°F-1.4°C 73% 1.0 mph SW1.6 kmh SW -- 29.74 in1007.1 mb 0.00 in0.0 mm 0.00 in0.0 mm 0.02 in0.5 mm
11:00 PM 37.2°F2.9°C 29.4°F-1.4°C 73% 2.0 mph WSW3.2 kmh WSW -- 29.75 in1007.5 mb 0.00 in0.0 mm 0.00 in0.0 mm 0.02 in0.5 mm
11:05 PM 37.1°F2.8°C 29.3°F-1.5°C 73% 3.0 mph SW4.8 kmh SW -- 29.75 in1007.5 mb 0.00 in0.0 mm 0.00 in0.0 mm 0.02 in0.5 mm
11:10 PM 37.2°F2.9°C 29.4°F-1.4°C 73% 2.0 mph SW3.2 kmh SW -- 29.75 in1007.5 mb 0.00 in0.0 mm 0.00 in0.0 mm 0.02 in0.5 mm
11:15 PM 37.1°F2.8°C 29.6°F-1.3°C 74% 4.0 mph WSW6.4 kmh WSW -- 29.75 in1007.5 mb 0.00 in0.0 mm 0.00 in0.0 mm 0.02 in0.5 mm
11:20 PM 37.2°F2.9°C 29.7°F-1.3°C 74% 6.0 mph WSW9.7 kmh WSW -- 29.76 in1007.8 mb 0.00 in0.0 mm 0.00 in0.0 mm 0.02 in0.5 mm
11:25 PM 37.2°F2.9°C 29.4°F-1.4°C 73% 4.0 mph SW6.4 kmh SW -- 29.77 in1008.1 mb 0.00 in0.0 mm 0.00 in0.0 mm 0.02 in0.5 mm
11:30 PM 37.2°F2.9°C 29.4°F-1.4°C 73% 2.0 mph SW3.2 kmh SW 9.0 mph14.5 kmh 29.77 in1008.1 mb 0.00 in0.0 mm 0.00 in0.0 mm 0.02 in0.5 mm
11:35 PM 37.2°F2.9°C 29.7°F-1.3°C 74% 2.0 mph WSW3.2 kmh WSW 9.0 mph14.5 kmh 29.77 in1008.1 mb 0.00 in0.0 mm 0.00 in0.0 mm 0.02 in0.5 mm
11:40 PM 37.3°F2.9°C 29.5°F-1.4°C 73% 4.0 mph WSW6.4 kmh WSW -- 29.77 in1008.1 mb 0.00 in0.0 mm 0.00 in0.0 mm 0.02 in0.5 mm
11:45 PM 37.3°F2.9°C 29.5°F-1.4°C 73% 3.0 mph WSW4.8 kmh WSW -- 29.77 in1008.1 mb 0.00 in0.0 mm 0.00 in0.0 mm 0.02 in0.5 mm
11:50 PM 37.3°F2.9°C 29.5°F-1.4°C 73% 4.0 mph WSW6.4 kmh WSW -- 29.77 in1008.1 mb 0.00 in0.0 mm 0.00 in0.0 mm 0.02 in0.5 mm
11:55 PM 37.2°F2.9°C 29.4°F-1.4°C 73% 4.0 mph WSW6.4 kmh WSW -- 29.77 in1008.1 mb 0.00 in0.0 mm 0.00 in0.0 mm 0.02 in0.5 mm